createdAt,value
2022-10-02T00:00:53.740Z,8.73
2022-10-02T00:01:56.224Z,8.58
2022-10-02T00:02:58.716Z,9.02
2022-10-02T00:04:01.208Z,8.27
2022-10-02T00:05:03.807Z,8.55
2022-10-02T00:06:06.547Z,9.27
2022-10-02T00:07:09.283Z,9.43
2022-10-02T00:08:11.769Z,8.56
2022-10-02T00:09:14.247Z,8.67
2022-10-02T00:10:16.933Z,9.79
2022-10-02T00:11:19.400Z,9.73
2022-10-02T00:12:21.976Z,9.09
2022-10-02T00:13:24.411Z,9.39
2022-10-02T00:14:26.893Z,8.55
2022-10-02T00:15:29.326Z,8.33
2022-10-02T00:16:32.124Z,8.87
2022-10-02T00:17:34.802Z,9.09
2022-10-02T00:18:37.249Z,8.67
2022-10-02T00:19:39.712Z,9.31
2022-10-02T00:20:42.358Z,8.97
2022-10-02T00:21:45.030Z,9.37
2022-10-02T00:22:47.475Z,8.86
2022-10-02T00:23:49.921Z,9.00
2022-10-02T00:24:52.655Z,9.44
2022-10-02T00:25:55.133Z,9.29
2022-10-02T00:26:57.825Z,9.53
2022-10-02T00:28:00.388Z,8.46
2022-10-02T00:29:03.112Z,9.23
2022-10-02T00:30:05.807Z,8.77
2022-10-02T00:31:08.249Z,8.61
2022-10-02T00:32:10.846Z,10.20
2022-10-02T00:33:13.463Z,9.47
2022-10-02T00:34:15.923Z,10.40
2022-10-02T00:35:18.422Z,9.76
2022-10-02T00:36:21.202Z,8.83
2022-10-02T00:37:23.642Z,8.89
2022-10-02T00:38:26.094Z,10.22
2022-10-02T00:39:28.535Z,10.05
2022-10-02T00:40:31.510Z,9.50
2022-10-02T00:41:33.951Z,9.13
2022-10-02T00:42:36.907Z,9.61
2022-10-02T00:43:39.379Z,9.07
2022-10-02T00:44:41.860Z,9.92
2022-10-02T00:45:44.374Z,9.13
2022-10-02T00:46:46.888Z,9.63
2022-10-02T00:47:49.328Z,8.99
2022-10-02T00:48:51.776Z,9.03
2022-10-02T00:49:54.224Z,10.21
2022-10-02T00:50:56.996Z,9.03
2022-10-02T00:51:59.437Z,10.27
2022-10-02T00:53:01.902Z,9.30
2022-10-02T00:54:04.344Z,9.82
2022-10-02T00:55:06.789Z,9.43
2022-10-02T00:56:09.836Z,9.41
2022-10-02T00:57:12.287Z,9.79
2022-10-02T00:58:14.725Z,9.45
2022-10-02T00:59:17.174Z,10.38
2022-10-02T01:00:19.836Z,9.06
2022-10-02T01:01:22.626Z,10.07
2022-10-02T01:02:27.070Z,9.45
2022-10-02T01:03:29.577Z,9.99
2022-10-02T01:04:32.116Z,9.85
2022-10-02T01:05:34.683Z,10.37
2022-10-02T01:06:37.615Z,11.67
2022-10-02T01:07:40.530Z,10.03
2022-10-02T01:08:43.008Z,10.55
2022-10-02T01:09:45.600Z,10.08
2022-10-02T01:10:48.127Z,10.39
2022-10-02T01:11:50.613Z,11.31
2022-10-02T01:12:53.057Z,9.64
2022-10-02T01:13:55.502Z,9.09
2022-10-02T01:14:57.992Z,9.63
2022-10-02T01:16:00.536Z,9.12
2022-10-02T01:17:03.222Z,9.53
2022-10-02T01:18:05.664Z,9.33
2022-10-02T01:19:08.105Z,9.68
2022-10-02T01:20:11.152Z,9.86
2022-10-02T01:21:13.592Z,9.73
2022-10-02T01:22:16.461Z,9.24
2022-10-02T01:23:18.906Z,9.19
2022-10-02T01:24:21.443Z,10.27
2022-10-02T01:25:23.912Z,9.97
2022-10-02T01:26:26.557Z,9.78
2022-10-02T01:27:29.030Z,9.68
2022-10-02T01:28:31.541Z,8.90
2022-10-02T01:29:34.251Z,9.22
2022-10-02T01:30:36.902Z,10.16
2022-10-02T01:31:39.435Z,9.28
2022-10-02T01:32:42.171Z,9.48
2022-10-02T01:33:44.613Z,9.35
2022-10-02T01:34:47.079Z,9.08
2022-10-02T01:35:49.629Z,9.50
2022-10-02T01:36:52.276Z,9.84
2022-10-02T01:37:54.771Z,10.25
2022-10-02T01:38:57.264Z,10.81
2022-10-02T01:39:59.730Z,9.76
2022-10-02T01:41:02.174Z,9.63
2022-10-02T01:42:04.715Z,9.43
2022-10-02T01:43:07.193Z,10.54
2022-10-02T01:44:09.631Z,10.19
2022-10-02T01:45:12.085Z,8.29
2022-10-02T01:46:15.489Z,9.53
2022-10-02T01:47:18.103Z,9.91
2022-10-02T01:48:20.594Z,8.39
2022-10-02T01:49:23.034Z,9.17
2022-10-02T01:50:25.780Z,9.21
2022-10-02T01:51:28.223Z,9.51
2022-10-02T01:52:30.662Z,9.86
2022-10-02T01:53:33.141Z,9.03
2022-10-02T01:54:35.942Z,9.56
2022-10-02T01:55:38.384Z,9.89
2022-10-02T01:56:41.151Z,10.88
2022-10-02T01:57:43.593Z,10.69
2022-10-02T01:58:46.136Z,10.52
2022-10-02T01:59:48.603Z,11.70
2022-10-02T02:00:51.332Z,13.27
2022-10-02T02:01:54.270Z,11.63
2022-10-02T02:02:56.887Z,11.36
2022-10-02T02:03:59.364Z,11.29
2022-10-02T02:05:01.838Z,9.89
2022-10-02T02:06:04.581Z,10.03
2022-10-02T02:07:07.044Z,10.18
2022-10-02T02:08:09.490Z,10.24
2022-10-02T02:09:11.971Z,9.13
2022-10-02T02:10:14.917Z,9.79
2022-10-02T02:11:17.367Z,10.44
2022-10-02T02:12:19.812Z,9.93
2022-10-02T02:13:22.256Z,10.79
2022-10-02T02:14:24.744Z,9.73
2022-10-02T02:15:27.386Z,10.35
2022-10-02T02:16:30.105Z,9.88
2022-10-02T02:17:32.750Z,9.85
2022-10-02T02:18:35.237Z,10.03
2022-10-02T02:19:37.706Z,10.69
2022-10-02T02:20:40.352Z,10.96
2022-10-02T02:21:42.791Z,10.66
2022-10-02T02:22:45.249Z,9.84
2022-10-02T02:23:48.068Z,10.48
2022-10-02T02:24:50.553Z,10.39
2022-10-02T02:25:52.997Z,10.19
2022-10-02T02:26:55.745Z,10.60
2022-10-02T02:27:58.253Z,10.25
2022-10-02T02:29:00.772Z,10.23
2022-10-02T02:30:03.536Z,11.63
2022-10-02T02:31:05.976Z,10.07
2022-10-02T02:32:08.411Z,10.35
2022-10-02T02:33:10.846Z,9.86
2022-10-02T02:34:13.293Z,10.57
2022-10-02T02:35:15.784Z,10.49
2022-10-02T02:36:18.321Z,10.47
2022-10-02T02:37:20.867Z,11.53
2022-10-02T02:38:23.305Z,9.83
2022-10-02T02:39:26.086Z,10.34
2022-10-02T02:40:28.654Z,9.71
2022-10-02T02:41:31.093Z,10.88
2022-10-02T02:42:33.540Z,10.27
2022-10-02T02:43:35.972Z,10.96
2022-10-02T02:44:38.500Z,10.45
2022-10-02T02:45:41.055Z,11.13
2022-10-02T02:46:43.729Z,10.11
2022-10-02T02:47:46.217Z,9.96
2022-10-02T02:48:48.668Z,9.68
2022-10-02T02:49:51.099Z,9.54
2022-10-02T02:50:53.878Z,9.57
2022-10-02T02:51:56.308Z,9.63
2022-10-02T02:52:58.851Z,10.55
2022-10-02T02:54:01.288Z,10.99
2022-10-02T02:55:03.728Z,9.35
2022-10-02T02:56:06.615Z,9.39
2022-10-02T02:57:09.484Z,10.32
2022-10-02T02:58:11.929Z,9.71
2022-10-02T02:59:14.379Z,9.48
2022-10-02T03:00:17.220Z,9.29
2022-10-02T03:01:19.799Z,9.85
2022-10-02T03:02:22.306Z,8.69
2022-10-02T03:03:24.829Z,11.17
2022-10-02T03:04:27.271Z,8.76
2022-10-02T03:05:30.247Z,9.09
2022-10-02T03:06:33.136Z,9.27
2022-10-02T03:07:35.937Z,9.06
2022-10-02T03:08:38.375Z,9.85
2022-10-02T03:09:40.816Z,9.03
2022-10-02T03:10:43.593Z,9.58
2022-10-02T03:11:46.056Z,8.88
2022-10-02T03:12:48.495Z,9.27
2022-10-02T03:13:50.930Z,9.03
2022-10-02T03:14:53.382Z,9.32
2022-10-02T03:15:55.892Z,9.75
2022-10-02T03:16:58.410Z,10.24
2022-10-02T03:18:00.847Z,9.25
2022-10-02T03:19:03.290Z,9.93
2022-10-02T03:20:06.157Z,9.10
2022-10-02T03:21:08.587Z,9.68
2022-10-02T03:22:11.299Z,10.58
2022-10-02T03:23:13.734Z,9.82
2022-10-02T03:24:16.178Z,9.87
2022-10-02T03:25:18.617Z,9.05
2022-10-02T03:26:21.491Z,9.73
2022-10-02T03:27:23.978Z,9.26
2022-10-02T03:28:50.599Z,9.30
2022-10-02T03:29:30.760Z,9.70
2022-10-02T03:30:33.199Z,9.19
2022-10-02T03:31:35.846Z,10.67
2022-10-02T03:32:38.723Z,9.77
2022-10-02T03:33:41.175Z,10.11
2022-10-02T03:34:43.610Z,9.44
2022-10-02T03:35:46.056Z,9.47
2022-10-02T03:36:48.794Z,9.31
2022-10-02T03:37:51.288Z,9.97
2022-10-02T03:39:19.877Z,10.39
2022-10-02T03:39:58.090Z,9.71
2022-10-02T03:41:00.773Z,9.64
2022-10-02T03:42:03.410Z,9.17
2022-10-02T03:43:05.895Z,9.63
2022-10-02T03:44:08.330Z,10.06
2022-10-02T03:45:19.518Z,9.99
2022-10-02T03:46:15.960Z,10.50
2022-10-02T03:47:18.464Z,9.81
2022-10-02T03:48:20.938Z,10.65
2022-10-02T03:49:23.471Z,9.60
2022-10-02T03:50:25.911Z,10.41
2022-10-02T03:51:28.345Z,11.75
2022-10-02T03:52:30.782Z,9.25
2022-10-02T03:53:33.250Z,9.99
2022-10-02T03:54:35.732Z,10.96
2022-10-02T03:55:38.170Z,10.21
2022-10-02T03:56:40.734Z,11.03
2022-10-02T03:57:43.191Z,10.26
2022-10-02T03:58:45.667Z,11.08
2022-10-02T03:59:48.104Z,10.80
2022-10-02T04:00:50.843Z,10.49
2022-10-02T04:01:53.500Z,10.24
2022-10-02T04:02:55.913Z,10.65
2022-10-02T04:03:58.462Z,11.39
2022-10-02T04:05:00.958Z,10.73
2022-10-02T04:06:03.549Z,11.91
2022-10-02T04:07:06.015Z,10.72
2022-10-02T04:08:08.454Z,9.73
2022-10-02T04:09:10.921Z,11.13
2022-10-02T04:10:14.482Z,9.52
2022-10-02T04:11:16.921Z,9.77
2022-10-02T04:12:19.382Z,10.85
2022-10-02T04:13:22.223Z,10.41
2022-10-02T04:14:24.752Z,10.12
2022-10-02T04:15:27.224Z,9.71
2022-10-02T04:16:29.904Z,9.46
2022-10-02T04:17:32.411Z,9.15
2022-10-02T04:18:34.844Z,10.13
2022-10-02T04:19:37.330Z,10.74
2022-10-02T04:20:39.973Z,9.33
2022-10-02T04:21:42.613Z,8.43
2022-10-02T04:22:45.055Z,8.73
2022-10-02T04:23:47.489Z,8.64
2022-10-02T04:24:49.960Z,8.89
2022-10-02T04:25:52.400Z,8.24
2022-10-02T04:26:55.032Z,9.29
2022-10-02T04:27:57.545Z,8.05
2022-10-02T04:29:00.142Z,8.25
2022-10-02T04:30:02.821Z,8.53
2022-10-02T04:31:05.360Z,8.23
2022-10-02T04:32:08.134Z,9.98
2022-10-02T04:33:10.578Z,8.55
2022-10-02T04:34:13.022Z,9.32
2022-10-02T04:35:15.498Z,9.05
2022-10-02T04:36:18.543Z,7.76
2022-10-02T04:37:20.984Z,7.83
2022-10-02T04:38:23.439Z,8.19
2022-10-02T04:39:25.937Z,8.34
2022-10-02T04:40:28.603Z,8.13
2022-10-02T04:41:31.237Z,8.32
2022-10-02T04:42:33.681Z,8.46
2022-10-02T04:43:36.125Z,7.59
2022-10-02T04:44:38.567Z,7.51
2022-10-02T04:45:41.062Z,7.84
2022-10-02T04:46:43.987Z,7.77
2022-10-02T04:47:46.638Z,7.76
2022-10-02T04:48:49.144Z,7.15
2022-10-02T04:49:51.595Z,7.36
2022-10-02T04:50:54.368Z,7.48
2022-10-02T04:51:56.870Z,6.95
2022-10-02T04:52:59.309Z,8.05
2022-10-02T04:54:01.761Z,8.37
2022-10-02T04:55:04.199Z,7.91
2022-10-02T04:56:07.075Z,8.91
2022-10-02T04:57:09.528Z,9.85
2022-10-02T04:58:12.097Z,9.21
2022-10-02T04:59:14.544Z,8.12
2022-10-02T05:00:17.117Z,10.69
2022-10-02T05:01:19.765Z,8.95
2022-10-02T05:02:22.314Z,8.61
2022-10-02T05:03:24.819Z,8.53
2022-10-02T05:04:27.467Z,8.55
2022-10-02T05:05:29.906Z,7.47
2022-10-02T05:06:32.606Z,7.41
2022-10-02T05:07:35.184Z,7.72
2022-10-02T05:08:37.760Z,8.04
2022-10-02T05:09:40.219Z,7.33
2022-10-02T05:10:42.846Z,8.39
2022-10-02T05:11:45.320Z,7.81
2022-10-02T05:12:47.799Z,7.45
2022-10-02T05:13:50.234Z,7.15
2022-10-02T05:14:52.672Z,8.20
2022-10-02T05:15:55.173Z,6.79
2022-10-02T05:16:58.035Z,7.36
2022-10-02T05:18:00.473Z,8.06
2022-10-02T05:19:02.924Z,6.40
2022-10-02T05:20:05.665Z,6.92
2022-10-02T05:21:08.114Z,7.25
2022-10-02T05:22:10.595Z,7.16
2022-10-02T05:23:13.058Z,7.23
2022-10-02T05:24:15.503Z,6.94
2022-10-02T05:25:17.988Z,6.61
2022-10-02T05:26:20.464Z,6.94
2022-10-02T05:27:22.933Z,7.23
2022-10-02T05:28:25.449Z,6.47
2022-10-02T05:29:27.947Z,6.19
2022-10-02T05:30:30.513Z,6.87
2022-10-02T05:31:33.001Z,5.91
2022-10-02T05:33:48.347Z,6.92
2022-10-02T05:34:50.057Z,5.49
2022-10-02T05:35:52.496Z,7.45
2022-10-02T05:36:55.135Z,6.41
2022-10-02T05:37:57.613Z,6.06
2022-10-02T05:39:00.082Z,6.03
2022-10-02T05:40:02.820Z,6.79
2022-10-02T05:41:05.271Z,6.21
2022-10-02T05:42:07.706Z,5.42
2022-10-02T05:43:10.204Z,5.39
2022-10-02T05:44:12.696Z,5.53
2022-10-02T05:45:15.157Z,5.61
2022-10-02T05:46:17.946Z,5.14
2022-10-02T05:47:20.452Z,5.77
2022-10-02T05:48:22.985Z,5.94
2022-10-02T05:49:25.446Z,5.09
2022-10-02T05:50:28.005Z,5.15
2022-10-02T05:51:30.444Z,5.26
2022-10-02T05:52:33.004Z,5.34
2022-10-02T05:53:35.527Z,5.79
2022-10-02T05:54:38.361Z,5.26
2022-10-02T05:55:40.804Z,5.03
2022-10-02T05:56:43.452Z,5.63
2022-10-02T05:57:45.906Z,5.45
2022-10-02T05:58:48.400Z,5.29
2022-10-02T05:59:50.865Z,5.60
2022-10-02T06:00:53.589Z,5.07
2022-10-02T06:01:56.090Z,5.01
2022-10-02T06:02:58.574Z,6.01
2022-10-02T06:04:01.054Z,5.62
2022-10-02T06:05:03.496Z,6.95
2022-10-02T06:06:06.149Z,5.19
2022-10-02T06:07:08.596Z,5.23
2022-10-02T06:08:11.037Z,5.49
2022-10-02T06:09:17.722Z,6.41
2022-10-02T06:10:18.399Z,5.44
2022-10-02T06:11:21.142Z,5.81
2022-10-02T06:12:23.577Z,5.61
2022-10-02T06:13:26.021Z,5.33
2022-10-02T06:14:28.486Z,5.33
2022-10-02T06:15:30.929Z,5.25
2022-10-02T06:16:33.606Z,5.58
2022-10-02T06:17:36.234Z,5.14
2022-10-02T06:18:38.677Z,5.73
2022-10-02T06:19:41.145Z,5.38
2022-10-02T06:20:43.902Z,5.37
2022-10-02T06:21:46.346Z,7.29
2022-10-02T06:22:48.797Z,4.96
2022-10-02T06:23:51.556Z,5.20
2022-10-02T06:24:54.049Z,5.57
2022-10-02T06:25:56.491Z,5.37
2022-10-02T06:26:59.233Z,5.13
2022-10-02T06:28:01.736Z,5.46
2022-10-02T06:29:04.323Z,5.33
2022-10-02T06:30:07.324Z,5.26
2022-10-02T06:31:09.799Z,5.33
2022-10-02T06:32:12.335Z,5.23
2022-10-02T06:33:14.777Z,5.25
2022-10-02T06:34:17.219Z,5.96
2022-10-02T06:35:19.699Z,4.95
2022-10-02T06:36:22.237Z,5.27
2022-10-02T06:37:24.704Z,5.38
2022-10-02T06:38:27.146Z,5.45
2022-10-02T06:39:29.608Z,5.46
2022-10-02T06:40:32.219Z,5.00
2022-10-02T06:41:35.069Z,5.44
2022-10-02T06:42:37.512Z,4.60
2022-10-02T06:43:39.954Z,4.55
2022-10-02T06:44:42.403Z,4.77
2022-10-02T06:45:44.959Z,5.14
2022-10-02T06:46:51.246Z,5.48
2022-10-02T06:47:51.912Z,4.78
2022-10-02T06:48:54.348Z,5.02
2022-10-02T06:49:56.828Z,5.20
2022-10-02T06:50:59.497Z,5.07
2022-10-02T06:52:01.936Z,4.89
2022-10-02T06:53:04.380Z,5.25
2022-10-02T06:54:06.831Z,5.21
2022-10-02T06:55:09.262Z,4.95
2022-10-02T06:56:12.243Z,4.61
2022-10-02T06:57:14.780Z,5.70
2022-10-02T06:58:17.229Z,4.05
2022-10-02T06:59:19.766Z,4.65
2022-10-02T07:00:22.529Z,4.37
2022-10-02T07:01:25.066Z,5.09
2022-10-02T07:02:27.566Z,4.62
2022-10-02T07:03:29.998Z,5.42
2022-10-02T07:04:32.439Z,4.80
2022-10-02T07:05:34.906Z,5.17
2022-10-02T07:06:38.111Z,5.35
2022-10-02T07:07:40.950Z,5.56
2022-10-02T07:08:43.397Z,4.44
2022-10-02T07:09:45.848Z,4.67
2022-10-02T07:10:48.637Z,4.42
2022-10-02T07:11:51.334Z,5.73
2022-10-02T07:12:53.776Z,4.47
2022-10-02T07:13:56.223Z,3.99
2022-10-02T07:14:58.968Z,4.33
2022-10-02T07:16:01.475Z,3.79
2022-10-02T07:17:04.020Z,4.45
2022-10-02T07:18:06.529Z,4.17
2022-10-02T07:19:08.972Z,4.22
2022-10-02T07:20:11.719Z,4.07
2022-10-02T07:21:14.159Z,3.84
2022-10-02T07:22:42.807Z,3.91
2022-10-02T07:23:21.019Z,3.85
2022-10-02T07:24:23.523Z,4.47
2022-10-02T07:25:25.991Z,3.54
2022-10-02T07:26:28.647Z,3.82
2022-10-02T07:27:31.149Z,3.66
2022-10-02T07:28:33.707Z,4.62
2022-10-02T07:29:36.332Z,3.51
2022-10-02T07:30:38.970Z,3.57
2022-10-02T07:31:41.593Z,3.15
2022-10-02T07:32:44.411Z,4.53
2022-10-02T07:33:46.850Z,3.57
2022-10-02T07:34:49.301Z,2.97
2022-10-02T07:35:51.768Z,3.16
2022-10-02T07:36:54.408Z,3.59
2022-10-02T07:37:56.878Z,3.41
2022-10-02T07:38:59.423Z,3.15
2022-10-02T07:40:01.871Z,3.37
2022-10-02T07:41:04.316Z,3.00
2022-10-02T07:42:06.858Z,2.95
2022-10-02T07:43:09.326Z,3.29
2022-10-02T07:44:11.861Z,3.83
2022-10-02T07:45:14.303Z,3.34
2022-10-02T07:46:17.350Z,3.17
2022-10-02T07:47:19.803Z,3.20
2022-10-02T07:48:22.316Z,3.16
2022-10-02T07:49:24.750Z,3.08
2022-10-02T07:50:27.281Z,3.30
2022-10-02T07:51:29.719Z,3.23
2022-10-02T07:52:32.185Z,3.49
2022-10-02T07:53:34.659Z,4.07
2022-10-02T07:54:37.093Z,3.41
2022-10-02T07:55:39.528Z,3.46
2022-10-02T07:56:42.078Z,3.52
2022-10-02T07:57:44.534Z,4.19
2022-10-02T07:58:46.994Z,3.59
2022-10-02T07:59:49.437Z,3.40
2022-10-02T08:00:52.091Z,3.75
2022-10-02T08:01:54.612Z,3.70
2022-10-02T08:02:57.259Z,3.30
2022-10-02T08:04:00.210Z,2.96
2022-10-02T08:05:02.643Z,3.75
2022-10-02T08:06:05.206Z,3.84
2022-10-02T08:07:07.637Z,3.64
2022-10-02T08:08:10.076Z,3.48
2022-10-02T08:09:12.543Z,3.46
2022-10-02T08:10:15.614Z,3.21
2022-10-02T08:11:18.059Z,3.94
2022-10-02T08:12:20.526Z,2.97
2022-10-02T08:13:22.956Z,4.49
2022-10-02T08:14:25.418Z,3.31
2022-10-02T08:15:27.899Z,2.84
2022-10-02T08:16:30.988Z,2.92
2022-10-02T08:17:33.477Z,2.86
2022-10-02T08:18:36.146Z,3.04
2022-10-02T08:19:38.995Z,3.44
2022-10-02T08:20:41.558Z,2.94
2022-10-02T08:21:44.289Z,3.35
2022-10-02T08:22:46.974Z,2.99
2022-10-02T08:23:49.463Z,3.07
2022-10-02T08:24:51.941Z,2.69
2022-10-02T08:25:54.397Z,2.77
2022-10-02T08:26:57.036Z,3.36
2022-10-02T08:27:59.554Z,2.77
2022-10-02T08:29:02.005Z,3.46
2022-10-02T08:30:04.802Z,2.75
2022-10-02T08:31:07.436Z,2.68
2022-10-02T08:32:10.004Z,2.65
2022-10-02T08:33:12.574Z,2.59
2022-10-02T08:34:15.020Z,2.52
2022-10-02T08:35:17.487Z,2.59
2022-10-02T08:36:20.422Z,2.66
2022-10-02T08:37:22.861Z,2.55
2022-10-02T08:38:25.297Z,2.93
2022-10-02T08:39:27.737Z,2.78
2022-10-02T08:40:30.554Z,2.89
2022-10-02T08:41:32.988Z,2.50
2022-10-02T08:42:35.424Z,2.91
2022-10-02T08:43:37.863Z,2.97
2022-10-02T08:44:40.536Z,2.45
2022-10-02T08:45:43.040Z,2.58
2022-10-02T08:46:45.852Z,2.64
2022-10-02T08:47:48.294Z,2.75
2022-10-02T08:48:50.767Z,2.62
2022-10-02T08:49:53.212Z,2.18
2022-10-02T08:50:55.976Z,2.79
2022-10-02T08:51:58.634Z,2.63
2022-10-02T08:53:01.274Z,2.58
2022-10-02T08:54:03.706Z,2.67
2022-10-02T08:55:06.151Z,2.91
2022-10-02T08:56:09.017Z,2.33
2022-10-02T08:57:11.451Z,2.42
2022-10-02T08:58:14.003Z,2.60
2022-10-02T08:59:16.436Z,1.83
2022-10-02T09:00:19.071Z,2.27
2022-10-02T09:01:21.575Z,2.25
2022-10-02T09:02:24.125Z,2.06
2022-10-02T09:03:26.649Z,2.75
2022-10-02T09:04:29.132Z,2.49
2022-10-02T09:05:31.685Z,2.10
2022-10-02T09:06:34.866Z,2.39
2022-10-02T09:07:37.713Z,2.37
2022-10-02T09:08:40.184Z,2.31
2022-10-02T09:09:42.693Z,2.28
2022-10-02T09:10:45.240Z,2.11
2022-10-02T09:11:47.807Z,2.10
2022-10-02T09:12:50.281Z,2.36
2022-10-02T09:13:52.719Z,1.92
2022-10-02T09:14:58.804Z,2.08
2022-10-02T09:15:59.752Z,2.09
2022-10-02T09:17:02.272Z,2.27
2022-10-02T09:18:04.707Z,2.04
2022-10-02T09:19:07.150Z,1.95
2022-10-02T09:20:10.082Z,1.79
2022-10-02T09:21:12.773Z,2.33
2022-10-02T09:22:15.230Z,2.73
2022-10-02T09:23:17.705Z,2.54
2022-10-02T09:24:20.140Z,2.22
2022-10-02T09:25:22.574Z,2.50
2022-10-02T09:26:25.121Z,2.27
2022-10-02T09:27:27.587Z,1.86
2022-10-02T09:28:30.137Z,2.19
2022-10-02T09:29:32.925Z,2.29
2022-10-02T09:30:35.559Z,3.41
2022-10-02T09:31:38.041Z,2.33
2022-10-02T09:32:40.584Z,2.58
2022-10-02T09:33:43.023Z,2.61
2022-10-02T09:34:45.470Z,2.05
2022-10-02T09:35:47.912Z,2.22
2022-10-02T09:36:50.665Z,2.47
2022-10-02T09:37:53.162Z,2.21
2022-10-02T09:38:55.593Z,2.35
2022-10-02T09:39:58.029Z,2.39
2022-10-02T09:41:00.835Z,2.39
2022-10-02T09:42:03.268Z,2.71
2022-10-02T09:43:05.743Z,2.48
2022-10-02T09:44:08.189Z,2.33
2022-10-02T09:45:10.625Z,2.33
2022-10-02T09:46:14.408Z,1.98
2022-10-02T09:47:16.915Z,2.10
2022-10-02T09:48:19.380Z,2.38
2022-10-02T09:49:21.834Z,2.12
2022-10-02T09:50:24.395Z,2.13
2022-10-02T09:51:26.832Z,3.78
2022-10-02T09:52:29.264Z,2.23
2022-10-02T09:53:32.090Z,2.30
2022-10-02T09:54:34.580Z,1.86
2022-10-02T09:55:37.042Z,1.83
2022-10-02T09:56:39.811Z,2.91
2022-10-02T09:57:42.540Z,1.81
2022-10-02T09:58:45.042Z,2.46
2022-10-02T09:59:47.549Z,2.16
2022-10-02T10:00:50.189Z,2.14
2022-10-02T10:01:52.904Z,1.97
2022-10-02T10:02:57.231Z,2.35
2022-10-02T10:03:59.711Z,1.89
2022-10-02T10:05:06.571Z,2.06
2022-10-02T10:06:06.919Z,2.14
2022-10-02T10:07:09.675Z,2.74
2022-10-02T10:08:12.141Z,2.27
2022-10-02T10:09:14.631Z,2.43
2022-10-02T10:10:17.870Z,2.59
2022-10-02T10:11:20.317Z,2.23
2022-10-02T10:12:22.757Z,2.23
2022-10-02T10:13:25.279Z,2.05
2022-10-02T10:14:27.775Z,2.21
2022-10-02T10:15:30.277Z,3.37
2022-10-02T10:16:33.121Z,2.61
2022-10-02T10:17:35.713Z,2.72
2022-10-02T10:18:38.162Z,2.71
2022-10-02T10:19:40.641Z,2.65
2022-10-02T10:20:43.322Z,3.03
2022-10-02T10:21:46.365Z,3.66
2022-10-02T10:22:49.328Z,3.37
2022-10-02T10:23:51.775Z,3.25
2022-10-02T10:24:54.246Z,3.17
2022-10-02T10:25:56.694Z,3.42
2022-10-02T10:26:59.381Z,3.31
2022-10-02T10:28:01.856Z,3.49
2022-10-02T10:29:04.369Z,3.45
2022-10-02T10:30:07.473Z,3.21
2022-10-02T10:31:09.971Z,3.79
2022-10-02T10:32:12.765Z,4.47
2022-10-02T10:33:15.200Z,4.01
2022-10-02T10:34:17.639Z,4.43
2022-10-02T10:35:20.115Z,4.23
2022-10-02T10:36:22.751Z,5.01
2022-10-02T10:37:25.189Z,4.47
2022-10-02T10:38:27.631Z,4.23
2022-10-02T10:39:30.073Z,4.44
2022-10-02T10:40:32.906Z,5.19
2022-10-02T10:41:36.135Z,5.28
2022-10-02T10:43:02.986Z,5.12
2022-10-02T10:43:43.474Z,7.18
2022-10-02T10:44:45.911Z,6.33
2022-10-02T10:45:48.486Z,7.25
2022-10-02T10:46:50.959Z,6.70
2022-10-02T10:47:53.461Z,6.77
2022-10-02T10:48:55.905Z,8.16
2022-10-02T10:49:58.346Z,8.49
2022-10-02T10:51:01.119Z,7.38
2022-10-02T10:52:03.557Z,7.59
2022-10-02T10:53:06.026Z,8.47
2022-10-02T10:54:08.470Z,7.01
2022-10-02T10:55:10.921Z,7.91
2022-10-02T10:56:15.342Z,9.08
2022-10-02T10:57:17.781Z,7.45
2022-10-02T10:58:20.231Z,8.43
2022-10-02T10:59:25.367Z,8.85
2022-10-02T11:00:27.530Z,8.05
2022-10-02T11:01:31.221Z,10.05
2022-10-02T11:02:33.718Z,9.46
2022-10-02T11:03:36.770Z,9.14
2022-10-02T11:04:39.219Z,9.79
2022-10-02T11:05:41.693Z,9.92
2022-10-02T11:06:46.232Z,8.99
2022-10-02T11:07:48.821Z,9.37
2022-10-02T11:08:51.260Z,9.18
2022-10-02T11:09:53.724Z,9.91
2022-10-02T11:10:56.370Z,9.27
2022-10-02T11:11:59.002Z,9.29
2022-10-02T11:13:01.447Z,10.01
2022-10-02T11:14:03.888Z,10.32
2022-10-02T11:15:06.331Z,8.98
2022-10-02T11:16:09.136Z,10.05
2022-10-02T11:17:11.678Z,9.33
2022-10-02T11:18:14.123Z,9.89
2022-10-02T11:19:20.662Z,10.09
2022-10-02T11:20:21.027Z,10.27
2022-10-02T11:21:23.473Z,8.59
2022-10-02T11:22:25.997Z,9.72
2022-10-02T11:23:28.436Z,9.47
2022-10-02T11:24:30.885Z,9.45
2022-10-02T11:25:33.331Z,10.96
2022-10-02T11:26:36.075Z,10.18
2022-10-02T11:27:38.548Z,10.15
2022-10-02T11:28:40.995Z,9.72
2022-10-02T11:29:43.718Z,10.55
2022-10-02T11:30:46.461Z,9.43
2022-10-02T11:31:48.913Z,9.85
2022-10-02T11:32:51.385Z,9.73
2022-10-02T11:33:53.824Z,9.52
2022-10-02T11:34:56.353Z,9.68
2022-10-02T11:35:58.813Z,9.22
2022-10-02T11:37:01.459Z,8.09
2022-10-02T11:38:04.329Z,9.36
2022-10-02T11:39:06.915Z,9.77
2022-10-02T11:40:09.661Z,8.77
2022-10-02T11:41:12.531Z,11.77
2022-10-02T11:42:15.218Z,8.41
2022-10-02T11:43:17.687Z,8.67
2022-10-02T11:44:20.128Z,9.14
2022-10-02T11:45:22.571Z,8.73
2022-10-02T11:46:25.610Z,9.25
2022-10-02T11:47:28.066Z,10.07
2022-10-02T11:48:30.679Z,11.02
2022-10-02T11:49:33.125Z,12.28
2022-10-02T11:50:35.665Z,11.87
2022-10-02T11:51:38.852Z,12.19
2022-10-02T11:52:45.998Z,12.33
2022-10-02T11:53:46.586Z,11.34
2022-10-02T11:54:49.034Z,9.95
2022-10-02T11:55:51.777Z,9.05
2022-10-02T11:56:54.421Z,9.43
2022-10-02T11:57:56.953Z,9.35
2022-10-02T11:58:59.446Z,9.51
2022-10-02T12:00:01.931Z,8.81
2022-10-02T12:01:04.387Z,8.83
2022-10-02T12:02:06.995Z,9.18
2022-10-02T12:03:09.771Z,9.29
2022-10-02T12:04:12.572Z,8.96
2022-10-02T12:05:15.010Z,9.68
2022-10-02T12:06:17.853Z,8.51
2022-10-02T12:07:20.309Z,8.83
2022-10-02T12:08:22.790Z,8.39
2022-10-02T12:09:25.663Z,8.33
2022-10-02T12:10:28.211Z,8.50
2022-10-02T12:11:30.688Z,7.19
2022-10-02T12:12:33.140Z,7.91
2022-10-02T12:13:35.575Z,7.41
2022-10-02T12:14:38.038Z,7.54
2022-10-02T12:15:40.517Z,6.55
2022-10-02T12:16:42.991Z,7.85
2022-10-02T12:17:45.492Z,5.81
2022-10-02T12:18:47.952Z,6.18
2022-10-02T12:19:50.419Z,5.26
2022-10-02T12:20:53.063Z,5.86
2022-10-02T12:21:55.493Z,6.75
2022-10-02T12:22:57.964Z,6.95
2022-10-02T12:24:00.403Z,5.43
2022-10-02T12:25:02.869Z,5.60
2022-10-02T12:26:05.498Z,5.73
2022-10-02T12:27:07.934Z,4.99
2022-10-02T12:28:10.474Z,4.74
2022-10-02T12:29:13.222Z,4.89
2022-10-02T12:30:15.909Z,4.84
2022-10-02T12:31:18.407Z,5.23
2022-10-02T12:32:21.202Z,4.53
2022-10-02T12:33:23.634Z,5.25
2022-10-02T12:34:26.081Z,4.79
2022-10-02T12:35:28.541Z,4.27
2022-10-02T12:36:31.273Z,3.76
2022-10-02T12:37:33.740Z,3.63
2022-10-02T12:38:36.185Z,4.27
2022-10-02T12:39:38.650Z,4.22
2022-10-02T12:40:41.367Z,3.45
2022-10-02T12:41:44.007Z,4.27
2022-10-02T12:42:46.450Z,3.42
2022-10-02T12:43:48.889Z,3.27
2022-10-02T12:44:51.329Z,3.49
2022-10-02T12:45:54.161Z,3.95
2022-10-02T12:46:56.768Z,3.41
2022-10-02T12:47:59.420Z,3.28
2022-10-02T12:49:01.863Z,3.24
2022-10-02T12:50:04.395Z,3.17
2022-10-02T12:51:06.856Z,2.54
2022-10-02T12:52:09.297Z,3.31
2022-10-02T12:53:11.737Z,2.95
2022-10-02T12:54:14.185Z,2.78
2022-10-02T12:55:16.669Z,3.39
2022-10-02T12:56:19.373Z,2.49
2022-10-02T12:57:21.808Z,3.13
2022-10-02T12:58:24.280Z,2.77
2022-10-02T12:59:26.737Z,3.45
2022-10-02T13:00:29.289Z,3.19
2022-10-02T13:01:31.879Z,2.73
2022-10-02T13:02:59.215Z,3.08
2022-10-02T13:03:39.290Z,3.15
2022-10-02T13:04:41.738Z,2.43
2022-10-02T13:05:46.802Z,3.57
2022-10-02T13:06:48.780Z,3.38
2022-10-02T13:07:51.210Z,3.67
2022-10-02T13:08:53.679Z,4.37
2022-10-02T13:09:56.140Z,3.38
2022-10-02T13:10:58.772Z,3.12
2022-10-02T13:12:01.245Z,5.38
2022-10-02T13:13:03.676Z,3.17
2022-10-02T13:14:06.240Z,3.25
2022-10-02T13:15:08.704Z,2.55
2022-10-02T13:16:12.076Z,2.84
2022-10-02T13:17:14.651Z,3.05
2022-10-02T13:18:17.120Z,3.19
2022-10-02T13:19:19.555Z,2.82
2022-10-02T13:20:21.993Z,2.85
2022-10-02T13:21:24.432Z,2.71
2022-10-02T13:22:26.917Z,2.65
2022-10-02T13:23:29.351Z,2.75
2022-10-02T13:24:31.799Z,2.18
2022-10-02T13:25:34.231Z,2.49
2022-10-02T13:26:36.960Z,2.90
2022-10-02T13:27:39.424Z,2.46
2022-10-02T13:28:41.867Z,2.87
2022-10-02T13:29:44.371Z,3.13
2022-10-02T13:30:47.003Z,3.03
2022-10-02T13:31:49.491Z,2.55
2022-10-02T13:32:52.184Z,2.15
2022-10-02T13:33:54.617Z,2.83
2022-10-02T13:34:57.061Z,2.71
2022-10-02T13:35:59.566Z,2.47
2022-10-02T13:37:02.096Z,2.38
2022-10-02T13:38:04.572Z,2.38
2022-10-02T13:39:07.005Z,2.19
2022-10-02T13:40:10.046Z,2.39
2022-10-02T13:41:12.500Z,2.37
2022-10-02T13:42:14.954Z,2.45
2022-10-02T13:43:17.417Z,2.37
2022-10-02T13:44:19.865Z,2.50
2022-10-02T13:45:22.330Z,2.45
2022-10-02T13:46:24.889Z,2.80
2022-10-02T13:47:27.323Z,2.71
2022-10-02T13:48:30.052Z,2.23
2022-10-02T13:49:32.494Z,2.57
2022-10-02T13:50:35.233Z,2.37